Terminal Aerodrome Forecast
Issued by NWS Green Bay, WI

Home | Current Version | Previous Version | Graphics & Text | Print | Product List | Glossary On
Versions: 1 2 3 4 5 6 7 8 9 10 11 12 13 14 15 16 17 18 19 20 21 22 23 24 25 26 27 28 29 30 31 32 33 34 35 36 37 38 39 40 41 42 43 44 45 46
499
FTUS43 KGRB 152143 AAB
TAFGRB
TAF AMD
KGRB 152143Z 1522/1618 04012G19KT 3SM -SN SCT015 OVC035
      TEMPO 1522/1524 1 1/2SM -SN OVC015
     FM160100 02008KT 3SM -SN OVC020
     FM160800 36008KT P6SM -SN SCT020 OVC040
     FM161400 34008KT P6SM SCT020 OVC040=

USA.gov is the U.S. government's official web portal to all federal, state and local government web resources and services.